Time;durP1;ratioP1;P1;durP2;ratioP2;P2;SDS_P1;SDS_P2;PMS_P1;PMS_P2;Temp;Humidity;BMP_temperature;BMP_pressure;BME280_temperature;BME280_humidity;BME280_pressure;Samples;Min_cycle;Max_cycle;Signal;HPM_P1;HPM_P2
2021/03/06 00:00:15;;;;;;;1.75;1.49;;;;;;;18.92;43.95;101910.47;;;;-57
2021/03/06 00:03:15;;;;;;;1.61;1.51;;;;;;;18.91;43.96;101911.33;;;;-57
2021/03/06 00:06:15;;;;;;;1.59;1.49;;;;;;;18.89;43.95;101909.23;;;;-57
2021/03/06 00:09:15;;;;;;;1.64;1.51;;;;;;;18.87;43.95;101907.95;;;;-57
2021/03/06 00:12:15;;;;;;;1.59;1.49;;;;;;;18.86;44.00;101907.75;;;;-57
2021/03/06 00:15:15;;;;;;;1.68;1.56;;;;;;;18.83;43.96;101915.30;;;;-57
2021/03/06 00:18:15;;;;;;;1.60;1.50;;;;;;;18.82;43.98;101911.10;;;;-56
2021/03/06 00:21:15;;;;;;;1.67;1.57;;;;;;;18.80;43.94;101904.86;;;;-56
2021/03/06 00:24:15;;;;;;;1.71;1.61;;;;;;;18.78;43.96;101904.89;;;;-57
2021/03/06 00:27:15;;;;;;;1.62;1.52;;;;;;;18.76;43.98;101909.82;;;;-56
2021/03/06 00:30:15;;;;;;;1.57;1.45;;;;;;;18.74;43.98;101908.81;;;;-57
2021/03/06 00:33:15;;;;;;;1.62;1.52;;;;;;;18.72;43.95;101910.54;;;;-57
2021/03/06 00:36:15;;;;;;;1.69;1.59;;;;;;;18.71;44.00;101906.91;;;;-57
2021/03/06 00:39:15;;;;;;;1.61;1.51;;;;;;;18.69;44.00;101911.32;;;;-57
2021/03/06 00:42:15;;;;;;;1.75;1.65;;;;;;;18.67;44.01;101914.66;;;;-57
2021/03/06 00:45:15;;;;;;;1.91;1.64;;;;;;;18.65;43.99;101915.24;;;;-58
2021/03/06 00:48:15;;;;;;;1.59;1.49;;;;;;;18.63;44.03;101911.77;;;;-57
2021/03/06 00:51:15;;;;;;;1.62;1.52;;;;;;;18.62;44.03;101913.12;;;;-57
2021/03/06 00:54:15;;;;;;;1.50;1.40;;;;;;;18.61;44.00;101906.91;;;;-57
2021/03/06 00:57:15;;;;;;;1.61;1.51;;;;;;;18.59;43.95;101900.59;;;;-56
2021/03/06 01:00:15;;;;;;;1.70;1.58;;;;;;;18.58;44.01;101901.45;;;;-57
2021/03/06 01:03:15;;;;;;;1.81;1.50;;;;;;;18.56;44.05;101894.50;;;;-57
2021/03/06 01:06:15;;;;;;;1.80;1.70;;;;;;;18.55;43.96;101895.05;;;;-57
2021/03/06 01:09:15;;;;;;;1.60;1.50;;;;;;;18.53;44.01;101893.19;;;;-57
2021/03/06 01:12:15;;;;;;;1.82;1.72;;;;;;;18.52;43.99;101896.06;;;;-56
2021/03/06 01:15:15;;;;;;;1.64;1.54;;;;;;;18.50;44.04;101892.27;;;;-56
2021/03/06 01:18:15;;;;;;;1.70;1.60;;;;;;;18.48;44.01;101893.00;;;;-56
2021/03/06 01:21:15;;;;;;;1.81;1.67;;;;;;;18.47;44.00;101892.91;;;;-57
2021/03/06 01:24:15;;;;;;;1.76;1.64;;;;;;;18.47;43.93;101890.77;;;;-57
2021/03/06 01:27:15;;;;;;;1.64;1.54;;;;;;;18.45;44.01;101891.78;;;;-57
2021/03/06 01:30:15;;;;;;;1.69;1.59;;;;;;;18.44;43.97;101891.16;;;;-56
2021/03/06 01:33:15;;;;;;;1.73;1.62;;;;;;;18.42;44.02;101892.56;;;;-57
2021/03/06 01:36:15;;;;;;;1.65;1.55;;;;;;;18.40;43.92;101893.55;;;;-57
2021/03/06 01:39:16;;;;;;;1.68;1.58;;;;;;;18.39;43.93;101894.18;;;;-57
2021/03/06 01:42:15;;;;;;;1.72;1.62;;;;;;;18.38;43.99;101889.91;;;;-56
2021/03/06 01:45:15;;;;;;;2.03;1.59;;;;;;;18.37;43.99;101885.82;;;;-57
2021/03/06 01:48:15;;;;;;;1.55;1.45;;;;;;;18.35;44.00;101887.63;;;;-57
2021/03/06 01:51:15;;;;;;;1.70;1.60;;;;;;;18.33;43.95;101884.07;;;;-57
2021/03/06 01:54:15;;;;;;;1.73;1.63;;;;;;;18.32;44.00;101884.14;;;;-57
2021/03/06 01:57:15;;;;;;;1.61;1.51;;;;;;;18.31;43.97;101882.86;;;;-56
2021/03/06 02:00:15;;;;;;;1.66;1.56;;;;;;;18.30;43.93;101884.75;;;;-56
2021/03/06 02:03:15;;;;;;;2.17;1.53;;;;;;;18.27;44.00;101878.03;;;;-57
2021/03/06 02:06:15;;;;;;;1.61;1.51;;;;;;;18.27;43.97;101877.20;;;;-57
2021/03/06 02:09:15;;;;;;;1.67;1.57;;;;;;;18.26;43.96;101876.79;;;;-56
2021/03/06 02:12:15;;;;;;;1.77;1.67;;;;;;;18.24;43.98;101878.38;;;;-51
2021/03/06 02:15:15;;;;;;;1.61;1.51;;;;;;;18.23;43.98;101877.06;;;;-51
2021/03/06 02:18:15;;;;;;;1.70;1.60;;;;;;;18.21;43.88;101879.60;;;;-51
2021/03/06 02:21:15;;;;;;;1.60;1.50;;;;;;;18.21;43.90;101881.94;;;;-51
2021/03/06 02:24:15;;;;;;;1.65;1.55;;;;;;;18.20;43.95;101881.33;;;;-52
2021/03/06 02:27:15;;;;;;;1.98;1.81;;;;;;;18.18;43.95;101879.52;;;;-51
2021/03/06 02:30:15;;;;;;;1.60;1.50;;;;;;;18.17;43.92;101883.02;;;;-52
2021/03/06 02:33:15;;;;;;;1.55;1.45;;;;;;;18.16;43.87;101874.16;;;;-51
2021/03/06 02:36:15;;;;;;;1.60;1.50;;;;;;;18.16;43.88;101869.98;;;;-51
2021/03/06 02:39:15;;;;;;;1.70;1.60;;;;;;;18.14;43.90;101873.85;;;;-51
2021/03/06 02:42:15;;;;;;;1.77;1.67;;;;;;;18.13;43.84;101878.02;;;;-51
2021/03/06 02:45:15;;;;;;;1.81;1.70;;;;;;;18.13;43.93;101878.98;;;;-52
2021/03/06 02:48:15;;;;;;;1.61;1.51;;;;;;;18.10;43.86;101876.88;;;;-53
2021/03/06 02:51:15;;;;;;;1.75;1.52;;;;;;;18.10;43.87;101879.54;;;;-53
2021/03/06 02:54:15;;;;;;;1.63;1.53;;;;;;;18.09;43.85;101877.23;;;;-51
2021/03/06 02:57:15;;;;;;;1.64;1.54;;;;;;;18.08;43.89;101873.72;;;;-53
2021/03/06 03:00:15;;;;;;;1.68;1.58;;;;;;;18.06;43.82;101872.76;;;;-51
2021/03/06 03:03:15;;;;;;;1.61;1.51;;;;;;;18.05;43.91;101873.52;;;;-51
2021/03/06 03:06:15;;;;;;;1.61;1.51;;;;;;;18.04;43.81;101872.70;;;;-51
2021/03/06 03:09:15;;;;;;;1.67;1.57;;;;;;;18.04;43.85;101873.09;;;;-51
2021/03/06 03:12:16;;;;;;;1.67;1.57;;;;;;;18.02;43.86;101872.21;;;;-51
2021/03/06 03:15:15;;;;;;;1.70;1.60;;;;;;;18.01;43.92;101867.90;;;;-51
2021/03/06 03:18:15;;;;;;;1.65;1.55;;;;;;;17.99;43.78;101864.26;;;;-51
2021/03/06 03:21:15;;;;;;;1.69;1.59;;;;;;;17.99;43.83;101866.16;;;;-51
2021/03/06 03:24:15;;;;;;;1.58;1.48;;;;;;;17.97;43.83;101869.21;;;;-53
2021/03/06 03:27:15;;;;;;;1.52;1.42;;;;;;;17.97;43.79;101868.28;;;;-51
2021/03/06 03:30:15;;;;;;;1.77;1.55;;;;;;;17.96;43.83;101867.78;;;;-51
2021/03/06 03:33:15;;;;;;;1.69;1.59;;;;;;;17.94;43.86;101867.72;;;;-52
2021/03/06 03:36:15;;;;;;;1.66;1.53;;;;;;;17.94;43.84;101864.53;;;;-53
2021/03/06 03:39:15;;;;;;;1.63;1.53;;;;;;;17.92;43.82;101865.94;;;;-51
2021/03/06 03:42:15;;;;;;;1.61;1.51;;;;;;;17.91;43.78;101866.48;;;;-52
2021/03/06 03:45:15;;;;;;;1.59;1.49;;;;;;;17.92;43.88;101869.01;;;;-51
2021/03/06 03:48:15;;;;;;;1.60;1.50;;;;;;;17.90;43.82;101870.49;;;;-51
2021/03/06 03:51:15;;;;;;;1.54;1.44;;;;;;;17.90;43.87;101872.18;;;;-53
2021/03/06 03:54:15;;;;;;;1.50;1.40;;;;;;;17.88;43.76;101872.12;;;;-53
2021/03/06 03:57:15;;;;;;;1.57;1.47;;;;;;;17.87;43.78;101874.05;;;;-51
2021/03/06 04:00:15;;;;;;;1.63;1.53;;;;;;;17.86;43.84;101880.56;;;;-51
2021/03/06 04:03:16;;;;;;;1.57;1.47;;;;;;;17.86;43.76;101879.41;;;;-52
2021/03/06 04:06:15;;;;;;;1.50;1.40;;;;;;;17.84;43.80;101880.16;;;;-51
2021/03/06 04:09:15;;;;;;;1.59;1.49;;;;;;;17.84;43.78;101881.78;;;;-53
2021/03/06 04:12:15;;;;;;;1.35;1.25;;;;;;;17.82;43.80;101881.84;;;;-53
2021/03/06 04:15:15;;;;;;;1.61;1.51;;;;;;;17.82;43.76;101886.70;;;;-51
2021/03/06 04:18:15;;;;;;;1.53;1.43;;;;;;;17.82;43.76;101893.19;;;;-53
2021/03/06 04:21:15;;;;;;;1.50;1.40;;;;;;;17.80;43.82;101891.02;;;;-51
2021/03/06 04:24:15;;;;;;;1.47;1.37;;;;;;;17.79;43.86;101889.30;;;;-50
2021/03/06 04:27:15;;;;;;;1.60;1.50;;;;;;;17.78;43.74;101893.63;;;;-51
2021/03/06 04:30:15;;;;;;;1.59;1.49;;;;;;;17.77;43.80;101897.98;;;;-53
2021/03/06 04:33:15;;;;;;;1.59;1.49;;;;;;;17.77;43.76;101908.27;;;;-53
2021/03/06 04:36:15;;;;;;;1.60;1.50;;;;;;;17.75;43.72;101905.45;;;;-51
2021/03/06 04:39:15;;;;;;;1.62;1.52;;;;;;;17.75;43.73;101905.03;;;;-52
2021/03/06 04:42:15;;;;;;;1.60;1.50;;;;;;;17.74;43.77;101907.75;;;;-52
2021/03/06 04:45:15;;;;;;;1.60;1.50;;;;;;;17.73;43.75;101907.22;;;;-51
2021/03/06 04:48:15;;;;;;;1.48;1.38;;;;;;;17.72;43.81;101907.99;;;;-52
2021/03/06 04:51:15;;;;;;;1.57;1.47;;;;;;;17.71;43.80;101909.35;;;;-53
2021/03/06 04:54:15;;;;;;;1.60;1.50;;;;;;;17.70;43.80;101905.60;;;;-50
2021/03/06 04:57:15;;;;;;;1.52;1.40;;;;;;;17.68;43.73;101902.77;;;;-50
2021/03/06 05:00:15;;;;;;;1.64;1.54;;;;;;;17.69;43.77;101901.64;;;;-51
2021/03/06 05:03:15;;;;;;;1.63;1.53;;;;;;;17.68;43.69;101904.39;;;;-51
2021/03/06 05:06:15;;;;;;;2.05;1.40;;;;;;;17.66;43.74;101900.91;;;;-51
2021/03/06 05:09:15;;;;;;;1.67;1.45;;;;;;;17.66;43.74;101898.27;;;;-52
2021/03/06 05:12:15;;;;;;;1.60;1.49;;;;;;;17.65;43.76;101895.25;;;;-52
2021/03/06 05:15:15;;;;;;;1.61;1.51;;;;;;;17.64;43.67;101894.59;;;;-53
2021/03/06 05:18:15;;;;;;;1.65;1.55;;;;;;;17.63;43.82;101897.94;;;;-53
2021/03/06 05:21:15;;;;;;;1.90;1.43;;;;;;;17.62;43.65;101897.75;;;;-51
2021/03/06 05:24:15;;;;;;;1.55;1.45;;;;;;;17.62;43.66;101900.34;;;;-51
2021/03/06 05:27:15;;;;;;;2.03;1.51;;;;;;;17.61;43.70;101904.02;;;;-52
2021/03/06 05:30:15;;;;;;;1.44;1.34;;;;;;;17.60;43.65;101907.81;;;;-52
2021/03/06 05:33:15;;;;;;;1.53;1.43;;;;;;;17.60;43.65;101902.91;;;;-53
2021/03/06 05:36:15;;;;;;;1.57;1.47;;;;;;;17.58;43.63;101902.73;;;;-53
2021/03/06 05:39:15;;;;;;;1.69;1.53;;;;;;;17.57;43.62;101899.74;;;;-51
2021/03/06 05:42:15;;;;;;;1.50;1.40;;;;;;;17.56;43.68;101899.89;;;;-50
2021/03/06 05:45:15;;;;;;;1.51;1.41;;;;;;;17.56;43.63;101901.42;;;;-50
2021/03/06 05:48:15;;;;;;;1.51;1.41;;;;;;;17.55;43.63;101906.15;;;;-51
2021/03/06 05:51:15;;;;;;;1.56;1.46;;;;;;;17.54;43.67;101911.33;;;;-51
2021/03/06 05:54:15;;;;;;;1.45;1.35;;;;;;;17.53;43.62;101912.56;;;;-51
2021/03/06 05:57:15;;;;;;;1.53;1.43;;;;;;;17.53;43.65;101916.38;;;;-52
2021/03/06 06:00:15;;;;;;;1.66;1.49;;;;;;;17.52;43.61;101914.08;;;;-50
2021/03/06 06:03:15;;;;;;;1.50;1.40;;;;;;;17.51;43.64;101922.13;;;;-50
2021/03/06 06:06:15;;;;;;;1.45;1.35;;;;;;;17.51;43.71;101923.27;;;;-51
2021/03/06 06:09:15;;;;;;;1.40;1.30;;;;;;;17.50;43.67;101923.24;;;;-51
2021/03/06 06:12:15;;;;;;;1.48;1.38;;;;;;;17.49;43.67;101923.02;;;;-51
2021/03/06 06:15:15;;;;;;;1.41;1.31;;;;;;;17.50;43.65;101923.31;;;;-52
2021/03/06 06:18:15;;;;;;;1.50;1.40;;;;;;;17.49;43.67;101923.19;;;;-53
2021/03/06 06:21:15;;;;;;;1.66;1.56;;;;;;;17.51;43.71;101925.84;;;;-52
2021/03/06 06:24:15;;;;;;;1.57;1.47;;;;;;;17.51;43.75;101927.48;;;;-51
2021/03/06 06:27:15;;;;;;;1.60;1.50;;;;;;;17.53;43.79;101927.55;;;;-52
2021/03/06 06:30:15;;;;;;;1.50;1.40;;;;;;;17.54;43.79;101932.14;;;;-51
2021/03/06 06:33:15;;;;;;;1.40;1.30;;;;;;;17.55;43.81;101927.08;;;;-50
2021/03/06 06:36:15;;;;;;;1.55;1.45;;;;;;;17.57;43.85;101927.70;;;;-50
2021/03/06 06:39:15;;;;;;;1.61;1.51;;;;;;;17.59;43.89;101929.41;;;;-50
2021/03/06 06:42:15;;;;;;;1.95;1.55;;;;;;;17.57;42.71;101928.19;;;;-52
2021/03/06 06:45:16;;;;;;;2.59;2.19;;;;;;;17.25;38.46;101934.92;;;;-53
2021/03/06 06:48:15;;;;;;;3.82;2.75;;;;;;;17.01;37.31;101937.59;;;;-53
2021/03/06 06:51:15;;;;;;;3.51;2.56;;;;;;;16.80;35.98;101945.63;;;;-53
2021/03/06 06:54:15;;;;;;;3.27;2.97;;;;;;;16.63;35.40;101947.30;;;;-52
2021/03/06 06:57:16;;;;;;;3.28;2.71;;;;;;;16.48;34.95;101952.39;;;;-52
2021/03/06 07:00:15;;;;;;;4.09;3.00;;;;;;;16.35;34.65;101954.86;;;;-53
2021/03/06 07:03:15;;;;;;;3.27;2.69;;;;;;;16.23;34.50;101954.50;;;;-52
2021/03/06 07:06:15;;;;;;;8.19;2.63;;;;;;;16.40;36.40;101954.72;;;;-46
2021/03/06 07:09:15;;;;;;;5.49;2.63;;;;;;;16.59;37.75;101957.48;;;;-47
2021/03/06 07:12:15;;;;;;;2.98;2.37;;;;;;;16.75;38.43;101960.89;;;;-49
2021/03/06 07:15:15;;;;;;;3.81;2.29;;;;;;;16.86;38.89;101964.61;;;;-53
2021/03/06 07:18:15;;;;;;;3.37;2.29;;;;;;;16.95;39.27;101970.56;;;;-51
2021/03/06 07:21:15;;;;;;;2.73;2.27;;;;;;;17.03;39.60;101976.17;;;;-53
2021/03/06 07:24:15;;;;;;;2.77;2.33;;;;;;;17.10;39.81;101978.45;;;;-51
2021/03/06 07:27:15;;;;;;;2.84;2.02;;;;;;;17.14;39.97;101976.23;;;;-51
2021/03/06 07:30:15;;;;;;;4.65;2.09;;;;;;;17.20;40.14;101979.59;;;;-54
2021/03/06 07:33:16;;;;;;;5.73;2.16;;;;;;;17.23;40.65;101975.84;;;;-57
2021/03/06 07:36:15;;;;;;;2.35;1.97;;;;;;;17.27;40.63;101980.45;;;;-57
2021/03/06 07:39:15;;;;;;;3.52;2.13;;;;;;;17.30;40.92;101977.48;;;;-53
2021/03/06 07:42:15;;;;;;;3.50;2.03;;;;;;;17.35;41.00;101981.42;;;;-48
2021/03/06 07:45:15;;;;;;;2.39;2.00;;;;;;;17.38;41.24;101983.81;;;;-51
2021/03/06 07:48:15;;;;;;;4.15;2.03;;;;;;;17.45;41.09;101988.92;;;;-52
2021/03/06 07:51:15;;;;;;;2.53;1.87;;;;;;;17.48;41.14;101989.37;;;;-53
2021/03/06 07:54:15;;;;;;;2.01;1.75;;;;;;;17.51;41.05;101988.20;;;;-52
2021/03/06 07:57:15;;;;;;;1.97;1.80;;;;;;;17.54;41.22;101986.79;;;;-53
2021/03/06 08:00:15;;;;;;;3.42;1.97;;;;;;;17.58;41.24;101988.08;;;;-52
2021/03/06 08:03:15;;;;;;;4.09;1.89;;;;;;;17.63;41.22;101990.36;;;;-53
2021/03/06 08:06:15;;;;;;;3.09;1.80;;;;;;;17.67;41.24;101989.39;;;;-53
2021/03/06 08:09:15;;;;;;;2.73;1.81;;;;;;;17.72;41.44;101987.60;;;;-52
2021/03/06 08:12:15;;;;;;;3.39;1.81;;;;;;;17.76;41.60;101987.13;;;;-52
2021/03/06 08:15:15;;;;;;;2.23;1.85;;;;;;;17.80;41.38;101985.56;;;;-52
2021/03/06 08:18:15;;;;;;;2.83;1.59;;;;;;;17.83;41.47;101984.19;;;;-52
2021/03/06 08:21:15;;;;;;;1.83;1.69;;;;;;;17.85;41.65;101989.14;;;;-52
2021/03/06 08:24:15;;;;;;;3.47;1.86;;;;;;;17.89;41.56;101986.28;;;;-52
2021/03/06 08:27:15;;;;;;;1.89;1.68;;;;;;;17.90;41.70;101988.73;;;;-58
2021/03/06 08:30:15;;;;;;;1.84;1.68;;;;;;;17.92;41.77;101992.62;;;;-58
2021/03/06 08:33:15;;;;;;;2.42;1.69;;;;;;;17.93;41.72;101988.14;;;;-57
2021/03/06 08:36:15;;;;;;;2.24;1.81;;;;;;;17.94;41.77;101985.16;;;;-58
2021/03/06 08:39:15;;;;;;;1.93;1.79;;;;;;;17.96;41.81;101986.93;;;;-58
2021/03/06 08:42:15;;;;;;;2.05;1.77;;;;;;;17.96;41.83;101979.31;;;;-57
2021/03/06 08:45:15;;;;;;;1.67;1.57;;;;;;;17.97;41.78;101980.34;;;;-57
2021/03/06 08:48:15;;;;;;;1.87;1.68;;;;;;;17.97;41.82;101977.59;;;;-58
2021/03/06 08:51:15;;;;;;;2.66;1.60;;;;;;;17.98;41.75;101983.92;;;;-58
2021/03/06 08:54:15;;;;;;;2.09;1.60;;;;;;;17.98;41.81;101979.95;;;;-57
2021/03/06 08:57:15;;;;;;;1.75;1.61;;;;;;;17.99;41.82;101980.86;;;;-57
2021/03/06 09:00:15;;;;;;;1.71;1.61;;;;;;;17.99;41.75;101982.41;;;;-58
2021/03/06 09:03:15;;;;;;;1.64;1.53;;;;;;;17.99;41.80;101988.41;;;;-58
2021/03/06 09:06:15;;;;;;;1.62;1.52;;;;;;;18.00;41.80;101990.90;;;;-58
2021/03/06 09:09:15;;;;;;;1.82;1.55;;;;;;;17.99;41.87;101988.81;;;;-58
2021/03/06 09:12:15;;;;;;;31.76;3.79;;;;;;;17.98;42.31;101984.34;;;;-59
2021/03/06 09:15:15;;;;;;;3.29;1.90;;;;;;;18.00;42.42;101983.19;;;;-60
2021/03/06 09:18:15;;;;;;;2.56;1.69;;;;;;;18.00;42.49;101978.80;;;;-60
2021/03/06 09:21:15;;;;;;;2.06;1.69;;;;;;;18.02;42.24;101981.97;;;;-60
2021/03/06 09:24:15;;;;;;;2.99;1.89;;;;;;;18.02;42.17;101982.30;;;;-59
2021/03/06 09:27:15;;;;;;;3.45;2.03;;;;;;;18.03;42.03;101981.27;;;;-58
2021/03/06 09:30:15;;;;;;;1.99;1.78;;;;;;;18.04;42.07;101979.37;;;;-64
2021/03/06 09:33:15;;;;;;;2.33;1.67;;;;;;;18.06;42.09;101979.77;;;;-62
2021/03/06 09:36:15;;;;;;;4.75;1.71;;;;;;;18.08;41.84;101978.20;;;;-61
2021/03/06 09:39:15;;;;;;;2.10;1.75;;;;;;;18.09;41.58;101981.16;;;;-62
2021/03/06 09:42:15;;;;;;;1.99;1.67;;;;;;;18.11;41.79;101980.25;;;;-61
2021/03/06 09:45:15;;;;;;;5.05;1.57;;;;;;;18.12;41.80;101978.69;;;;-61
2021/03/06 09:48:15;;;;;;;3.08;1.59;;;;;;;18.14;41.82;101974.22;;;;-63
2021/03/06 09:51:15;;;;;;;2.24;1.55;;;;;;;18.15;41.90;101968.31;;;;-58
2021/03/06 09:54:16;;;;;;;2.57;1.61;;;;;;;18.17;42.05;101967.81;;;;-64
2021/03/06 09:57:15;;;;;;;1.77;1.43;;;;;;;18.19;42.09;101968.45;;;;-57
2021/03/06 10:00:15;;;;;;;2.61;1.61;;;;;;;18.20;42.13;101969.66;;;;-65
2021/03/06 10:03:15;;;;;;;3.34;1.73;;;;;;;18.24;42.35;101967.16;;;;-62
2021/03/06 10:06:15;;;;;;;2.63;1.51;;;;;;;18.25;42.11;101965.67;;;;-52
2021/03/06 10:09:15;;;;;;;2.10;1.55;;;;;;;18.26;42.26;101956.41;;;;-60
2021/03/06 10:12:16;;;;;;;2.07;1.66;;;;;;;18.28;42.29;101955.21;;;;-56
2021/03/06 10:15:16;;;;;;;2.21;1.69;;;;;;;18.30;42.26;101962.19;;;;-59
2021/03/06 10:18:16;;;;;;;2.13;1.61;;;;;;;18.32;42.43;101958.20;;;;-56
2021/03/06 10:21:15;;;;;;;3.47;1.70;;;;;;;18.32;42.33;101954.09;;;;-54
2021/03/06 10:24:15;;;;;;;2.17;1.61;;;;;;;18.34;42.39;101959.36;;;;-54
2021/03/06 10:27:15;;;;;;;2.07;1.70;;;;;;;18.36;42.39;101957.00;;;;-53
2021/03/06 10:30:15;;;;;;;2.09;1.59;;;;;;;18.36;42.36;101960.90;;;;-59
2021/03/06 10:33:15;;;;;;;2.41;1.73;;;;;;;18.38;42.48;101969.05;;;;-63
2021/03/06 10:36:15;;;;;;;2.40;1.61;;;;;;;18.39;42.51;101961.70;;;;-66
2021/03/06 10:39:15;;;;;;;1.74;1.47;;;;;;;18.41;42.51;101964.78;;;;-55
2021/03/06 10:42:15;;;;;;;1.69;1.47;;;;;;;18.41;42.51;101964.22;;;;-57
2021/03/06 10:45:15;;;;;;;2.01;1.58;;;;;;;18.43;42.42;101962.17;;;;-58
2021/03/06 10:48:15;;;;;;;1.73;1.42;;;;;;;18.43;42.48;101962.58;;;;-63
2021/03/06 10:51:15;;;;;;;1.84;1.40;;;;;;;18.45;42.43;101955.27;;;;-63
2021/03/06 10:54:15;;;;;;;2.64;1.51;;;;;;;18.43;42.26;101949.52;;;;-51
2021/03/06 10:57:15;;;;;;;3.86;1.64;;;;;;;18.43;42.21;101949.44;;;;-58
2021/03/06 11:00:15;;;;;;;2.22;1.66;;;;;;;18.45;42.21;101949.67;;;;-63
2021/03/06 11:03:15;;;;;;;1.71;1.44;;;;;;;18.48;42.37;101948.53;;;;-64
2021/03/06 11:06:15;;;;;;;1.99;1.67;;;;;;;18.52;42.43;101949.09;;;;-61
2021/03/06 11:09:15;;;;;;;1.70;1.60;;;;;;;18.57;42.52;101947.45;;;;-63
2021/03/06 11:12:15;;;;;;;1.71;1.56;;;;;;;18.61;42.52;101949.78;;;;-62
2021/03/06 11:15:15;;;;;;;1.67;1.56;;;;;;;18.70;42.51;101948.97;;;;-55
2021/03/06 11:18:15;;;;;;;1.59;1.49;;;;;;;18.74;42.49;101943.99;;;;-60
2021/03/06 11:21:15;;;;;;;1.97;1.35;;;;;;;18.81;42.44;101940.82;;;;-59
2021/03/06 11:24:15;;;;;;;1.89;1.47;;;;;;;18.85;42.44;101937.95;;;;-59
2021/03/06 11:27:15;;;;;;;1.64;1.54;;;;;;;18.88;42.46;101936.28;;;;-51
2021/03/06 11:30:15;;;;;;;2.25;1.70;;;;;;;18.88;42.10;101933.81;;;;-49
2021/03/06 11:33:15;;;;;;;3.37;1.56;;;;;;;18.90;41.56;101925.74;;;;-50
2021/03/06 11:36:15;;;;;;;3.09;1.57;;;;;;;18.92;41.91;101922.00;;;;-51
2021/03/06 11:39:15;;;;;;;6.09;1.69;;;;;;;18.99;41.97;101919.06;;;;-51
2021/03/06 11:42:15;;;;;;;3.11;1.50;;;;;;;19.04;42.08;101912.22;;;;-51
2021/03/06 11:45:15;;;;;;;3.17;1.61;;;;;;;19.05;42.00;101910.08;;;;-54
2021/03/06 11:48:15;;;;;;;2.51;1.61;;;;;;;19.07;41.89;101902.34;;;;-62
2021/03/06 11:51:15;;;;;;;1.99;1.60;;;;;;;19.06;40.47;101903.11;;;;-59
2021/03/06 11:54:15;;;;;;;3.01;1.69;;;;;;;19.08;41.15;101897.48;;;;-56
2021/03/06 11:57:15;;;;;;;3.61;1.89;;;;;;;19.09;40.86;101896.23;;;;-58
2021/03/06 12:00:15;;;;;;;1.78;1.50;;;;;;;19.10;40.87;101885.11;;;;-60
2021/03/06 12:03:15;;;;;;;2.91;1.63;;;;;;;19.11;40.73;101879.12;;;;-57
2021/03/06 12:06:15;;;;;;;2.72;1.69;;;;;;;19.13;40.81;101879.42;;;;-52
2021/03/06 12:09:15;;;;;;;2.71;1.57;;;;;;;19.14;40.50;101870.53;;;;-58
2021/03/06 12:12:15;;;;;;;1.58;1.46;;;;;;;19.16;40.67;101864.01;;;;-53
2021/03/06 12:15:15;;;;;;;3.21;1.50;;;;;;;19.21;40.66;101854.22;;;;-50
2021/03/06 12:18:15;;;;;;;1.92;1.53;;;;;;;19.24;40.67;101852.14;;;;-51
2021/03/06 12:21:16;;;;;;;1.74;1.55;;;;;;;19.25;40.86;101847.86;;;;-50
2021/03/06 12:24:15;;;;;;;2.43;1.57;;;;;;;19.27;40.87;101835.47;;;;-51
2021/03/06 12:27:15;;;;;;;1.78;1.60;;;;;;;19.28;40.87;101834.22;;;;-50
2021/03/06 12:30:15;;;;;;;1.91;1.65;;;;;;;19.29;40.90;101836.19;;;;-51
2021/03/06 12:33:15;;;;;;;1.63;1.53;;;;;;;19.31;40.95;101833.31;;;;-51
2021/03/06 12:36:15;;;;;;;1.80;1.62;;;;;;;19.31;40.96;101830.06;;;;-51
2021/03/06 12:39:15;;;;;;;1.50;1.40;;;;;;;19.33;41.00;101832.55;;;;-48
2021/03/06 12:42:15;;;;;;;2.31;1.51;;;;;;;19.32;41.07;101826.05;;;;-48
2021/03/06 12:45:15;;;;;;;1.61;1.50;;;;;;;19.34;41.09;101831.76;;;;-48
2021/03/06 12:48:15;;;;;;;1.82;1.57;;;;;;;19.35;41.05;101828.72;;;;-49
2021/03/06 12:51:15;;;;;;;1.73;1.43;;;;;;;19.38;40.97;101821.38;;;;-48
2021/03/06 12:54:15;;;;;;;1.46;1.36;;;;;;;19.38;41.01;101821.31;;;;-48
2021/03/06 12:57:15;;;;;;;1.56;1.45;;;;;;;19.38;41.08;101815.78;;;;-49
2021/03/06 13:00:15;;;;;;;2.25;1.40;;;;;;;19.40;41.10;101815.84;;;;-57
2021/03/06 13:03:15;;;;;;;2.29;1.40;;;;;;;19.39;41.08;101810.30;;;;-51
2021/03/06 13:06:15;;;;;;;4.84;1.40;;;;;;;19.38;40.93;101808.54;;;;-51
2021/03/06 13:09:15;;;;;;;1.85;1.47;;;;;;;19.37;40.95;101805.36;;;;-51
2021/03/06 13:12:15;;;;;;;1.82;1.57;;;;;;;19.37;40.49;101810.16;;;;-51
2021/03/06 13:15:16;;;;;;;1.69;1.41;;;;;;;19.39;40.72;101812.00;;;;-51
2021/03/06 13:18:15;;;;;;;1.81;1.45;;;;;;;19.38;40.79;101804.44;;;;-50
2021/03/06 13:21:15;;;;;;;3.04;1.41;;;;;;;19.40;40.87;101798.36;;;;-51
2021/03/06 13:24:15;;;;;;;1.41;1.31;;;;;;;19.41;40.90;101799.14;;;;-51
2021/03/06 13:27:15;;;;;;;2.17;1.45;;;;;;;19.41;41.04;101796.37;;;;-51
2021/03/06 13:30:16;;;;;;;4.35;1.41;;;;;;;19.41;40.99;101789.63;;;;-52
2021/03/06 13:33:15;;;;;;;2.65;1.41;;;;;;;19.45;41.28;101786.56;;;;-52
2021/03/06 13:36:15;;;;;;;1.39;1.29;;;;;;;19.48;41.49;101781.59;;;;-48
2021/03/06 13:39:15;;;;;;;1.45;1.35;;;;;;;19.53;41.47;101781.09;;;;-57
2021/03/06 13:42:15;;;;;;;1.68;1.50;;;;;;;19.54;41.47;101783.06;;;;-63
2021/03/06 13:45:15;;;;;;;1.53;1.43;;;;;;;19.56;41.57;101781.81;;;;-53
2021/03/06 13:48:15;;;;;;;1.48;1.31;;;;;;;19.58;41.59;101773.00;;;;-56
2021/03/06 13:51:15;;;;;;;1.87;1.41;;;;;;;19.59;41.59;101780.01;;;;-54
2021/03/06 13:54:15;;;;;;;1.72;1.40;;;;;;;19.61;41.62;101767.62;;;;-54
2021/03/06 13:57:15;;;;;;;1.87;1.57;;;;;;;19.63;41.62;101765.80;;;;-56
2021/03/06 14:00:15;;;;;;;1.54;1.44;;;;;;;19.66;41.76;101761.19;;;;-56
2021/03/06 14:03:15;;;;;;;1.33;1.23;;;;;;;19.65;41.66;101755.48;;;;-61
2021/03/06 14:06:15;;;;;;;1.53;1.33;;;;;;;19.68;41.67;101750.51;;;;-56
2021/03/06 14:09:15;;;;;;;1.43;1.33;;;;;;;19.71;41.72;101742.22;;;;-63
2021/03/06 14:12:15;;;;;;;3.15;1.40;;;;;;;19.73;41.36;101737.56;;;;-63
2021/03/06 14:15:16;;;;;;;1.85;1.43;;;;;;;19.74;41.33;101731.09;;;;-54
2021/03/06 14:18:15;;;;;;;2.06;1.40;;;;;;;19.73;41.36;101730.97;;;;-53
2021/03/06 14:21:15;;;;;;;2.19;1.47;;;;;;;19.74;41.28;101721.66;;;;-53
2021/03/06 14:24:15;;;;;;;2.94;1.51;;;;;;;19.74;41.30;101720.44;;;;-54
2021/03/06 14:27:15;;;;;;;1.97;1.31;;;;;;;19.75;41.19;101713.61;;;;-53
2021/03/06 14:30:15;;;;;;;1.71;1.45;;;;;;;19.74;41.23;101710.52;;;;-54
2021/03/06 14:33:15;;;;;;;3.33;1.40;;;;;;;19.75;41.19;101704.18;;;;-53
2021/03/06 14:36:15;;;;;;;2.85;1.52;;;;;;;19.77;41.26;101695.92;;;;-54
2021/03/06 14:39:15;;;;;;;1.47;1.37;;;;;;;19.77;41.20;101697.39;;;;-53
2021/03/06 14:42:15;;;;;;;1.93;1.53;;;;;;;19.78;41.14;101695.65;;;;-54
2021/03/06 14:45:15;;;;;;;1.54;1.41;;;;;;;19.78;41.14;101690.94;;;;-53
2021/03/06 14:48:15;;;;;;;2.47;1.30;;;;;;;19.79;41.13;101688.98;;;;-53
2021/03/06 14:51:15;;;;;;;3.07;1.51;;;;;;;19.79;41.17;101684.03;;;;-53
2021/03/06 14:54:17;;;;;;;1.42;1.32;;;;;;;19.81;41.12;101679.19;;;;-53
2021/03/06 14:57:15;;;;;;;1.42;1.30;;;;;;;19.79;41.16;101673.78;;;;-53
2021/03/06 15:00:16;;;;;;;1.62;1.47;;;;;;;19.81;41.14;101677.08;;;;-64
2021/03/06 15:03:15;;;;;;;3.43;1.51;;;;;;;19.82;41.30;101674.44;;;;-62
2021/03/06 15:06:15;;;;;;;2.44;1.57;;;;;;;19.84;41.46;101664.23;;;;-62
2021/03/06 15:09:15;;;;;;;1.72;1.45;;;;;;;19.86;41.56;101658.10;;;;-61
2021/03/06 15:12:15;;;;;;;1.83;1.37;;;;;;;19.88;41.61;101654.57;;;;-65
2021/03/06 15:15:15;;;;;;;2.56;1.39;;;;;;;19.88;41.44;101650.66;;;;-60
2021/03/06 15:18:15;;;;;;;3.12;1.40;;;;;;;19.86;41.45;101653.75;;;;-61
2021/03/06 15:21:15;;;;;;;3.43;1.42;;;;;;;19.88;41.54;101661.08;;;;-59
2021/03/06 15:24:15;;;;;;;4.55;1.46;;;;;;;19.88;41.30;101666.45;;;;-63
2021/03/06 15:27:15;;;;;;;2.79;1.35;;;;;;;19.83;41.40;101656.30;;;;-53
2021/03/06 15:30:15;;;;;;;2.96;1.47;;;;;;;19.80;41.26;101651.04;;;;-50
2021/03/06 15:33:15;;;;;;;3.26;1.68;;;;;;;19.78;40.94;101650.50;;;;-60
2021/03/06 15:36:15;;;;;;;4.13;1.77;;;;;;;19.77;40.47;101650.95;;;;-58
2021/03/06 15:39:15;;;;;;;2.31;1.61;;;;;;;19.76;40.62;101647.85;;;;-60
2021/03/06 15:42:15;;;;;;;3.67;1.60;;;;;;;19.77;40.52;101645.91;;;;-56
2021/03/06 15:45:15;;;;;;;2.67;1.68;;;;;;;19.77;40.48;101639.16;;;;-61
2021/03/06 15:48:15;;;;;;;2.37;1.50;;;;;;;19.77;40.38;101635.83;;;;-54
2021/03/06 15:51:15;;;;;;;3.01;1.55;;;;;;;19.78;39.98;101638.14;;;;-54
2021/03/06 15:54:15;;;;;;;2.31;1.57;;;;;;;19.79;40.51;101633.27;;;;-45
2021/03/06 15:57:15;;;;;;;2.54;1.70;;;;;;;19.82;40.47;101631.20;;;;-61
2021/03/06 16:00:15;;;;;;;2.35;1.70;;;;;;;19.83;40.36;101623.92;;;;-58
2021/03/06 16:03:15;;;;;;;2.01;1.60;;;;;;;19.84;40.37;101627.06;;;;-59
2021/03/06 16:06:15;;;;;;;2.69;1.71;;;;;;;19.85;40.11;101620.64;;;;-58
2021/03/06 16:09:15;;;;;;;3.16;1.69;;;;;;;19.86;40.28;101620.52;;;;-58
2021/03/06 16:12:15;;;;;;;2.67;1.61;;;;;;;19.88;40.14;101618.01;;;;-54
2021/03/06 16:15:15;;;;;;;1.97;1.61;;;;;;;19.88;39.87;101618.29;;;;-62
2021/03/06 16:18:15;;;;;;;2.42;1.71;;;;;;;19.90;40.07;101614.97;;;;-59
2021/03/06 16:21:15;;;;;;;1.93;1.60;;;;;;;19.91;40.17;101613.13;;;;-48
2021/03/06 16:24:15;;;;;;;2.25;1.83;;;;;;;19.93;40.12;101614.72;;;;-51
2021/03/06 16:27:15;;;;;;;2.88;1.91;;;;;;;19.94;39.97;101613.52;;;;-53
2021/03/06 16:30:15;;;;;;;1.81;1.59;;;;;;;19.95;39.91;101615.99;;;;-59
2021/03/06 16:33:15;;;;;;;2.89;1.80;;;;;;;19.98;39.71;101617.84;;;;-49
2021/03/06 16:36:15;;;;;;;2.85;1.70;;;;;;;20.01;39.78;101619.14;;;;-50
2021/03/06 16:39:15;;;;;;;1.67;1.48;;;;;;;20.02;39.83;101615.73;;;;-50
2021/03/06 16:42:15;;;;;;;2.66;1.75;;;;;;;20.01;39.94;101610.28;;;;-50